sensor_id;sensor_type;location;lat;lon;timestamp;P1;durP1;ratioP1;P2;durP2;ratioP2
7440;SDS011;29616;51.950;8.572;2023-04-25T00:00:26;10.80;;;3.97;;
7440;SDS011;29616;51.950;8.572;2023-04-25T00:02:54;5.43;;;1.73;;
7440;SDS011;29616;51.950;8.572;2023-04-25T00:05:26;6.15;;;1.23;;
7440;SDS011;29616;51.950;8.572;2023-04-25T00:07:57;8.57;;;3.05;;
7440;SDS011;29616;51.950;8.572;2023-04-25T00:10:27;12.00;;;4.93;;
7440;SDS011;29616;51.950;8.572;2023-04-25T00:12:55;4.60;;;2.13;;
7440;SDS011;29616;51.950;8.572;2023-04-25T00:15:25;5.75;;;3.10;;
7440;SDS011;29616;51.950;8.572;2023-04-25T00:17:54;14.15;;;3.83;;
7440;SDS011;29616;51.950;8.572;2023-04-25T00:20:22;10.77;;;4.82;;
7440;SDS011;29616;51.950;8.572;2023-04-25T00:22:52;7.80;;;2.70;;
7440;SDS011;29616;51.950;8.572;2023-04-25T00:25:21;8.75;;;2.08;;
7440;SDS011;29616;51.950;8.572;2023-04-25T00:27:52;9.82;;;2.45;;
7440;SDS011;29616;51.950;8.572;2023-04-25T00:30:20;7.65;;;3.58;;
7440;SDS011;29616;51.950;8.572;2023-04-25T00:32:48;8.80;;;4.03;;
7440;SDS011;29616;51.950;8.572;2023-04-25T00:35:19;10.43;;;5.72;;
7440;SDS011;29616;51.950;8.572;2023-04-25T00:37:49;18.77;;;7.85;;
7440;SDS011;29616;51.950;8.572;2023-04-25T00:40:19;9.82;;;4.38;;
7440;SDS011;29616;51.950;8.572;2023-04-25T00:42:48;11.63;;;4.93;;
7440;SDS011;29616;51.950;8.572;2023-04-25T00:45:21;4.72;;;2.05;;
7440;SDS011;29616;51.950;8.572;2023-04-25T00:47:55;13.73;;;3.53;;
7440;SDS011;29616;51.950;8.572;2023-04-25T00:50:24;14.07;;;6.65;;
7440;SDS011;29616;51.950;8.572;2023-04-25T00:52:53;8.05;;;3.17;;
7440;SDS011;29616;51.950;8.572;2023-04-25T00:55:23;16.55;;;4.78;;
7440;SDS011;29616;51.950;8.572;2023-04-25T00:57:52;7.80;;;3.97;;
7440;SDS011;29616;51.950;8.572;2023-04-25T01:00:23;13.57;;;5.00;;
7440;SDS011;29616;51.950;8.572;2023-04-25T01:02:53;10.48;;;5.47;;
7440;SDS011;29616;51.950;8.572;2023-04-25T01:05:22;10.65;;;3.65;;
7440;SDS011;29616;51.950;8.572;2023-04-25T01:07:52;7.15;;;2.15;;
7440;SDS011;29616;51.950;8.572;2023-04-25T01:10:21;14.50;;;4.75;;
7440;SDS011;29616;51.950;8.572;2023-04-25T01:12:49;8.30;;;2.80;;
7440;SDS011;29616;51.950;8.572;2023-04-25T01:15:18;12.55;;;5.43;;
7440;SDS011;29616;51.950;8.572;2023-04-25T01:17:49;17.25;;;6.53;;
7440;SDS011;29616;51.950;8.572;2023-04-25T01:20:18;12.95;;;5.85;;
7440;SDS011;29616;51.950;8.572;2023-04-25T01:22:51;11.10;;;1.92;;
7440;SDS011;29616;51.950;8.572;2023-04-25T01:25:22;22.88;;;7.22;;
7440;SDS011;29616;51.950;8.572;2023-04-25T01:27:51;9.35;;;3.78;;
7440;SDS011;29616;51.950;8.572;2023-04-25T01:30:22;9.27;;;4.95;;
7440;SDS011;29616;51.950;8.572;2023-04-25T01:32:50;10.82;;;4.07;;
7440;SDS011;29616;51.950;8.572;2023-04-25T01:35:20;15.38;;;6.70;;
7440;SDS011;29616;51.950;8.572;2023-04-25T01:37:55;12.68;;;6.10;;
7440;SDS011;29616;51.950;8.572;2023-04-25T01:40:24;10.85;;;5.43;;
7440;SDS011;29616;51.950;8.572;2023-04-25T01:42:56;17.60;;;4.28;;
7440;SDS011;29616;51.950;8.572;2023-04-25T01:45:26;12.32;;;4.35;;
7440;SDS011;29616;51.950;8.572;2023-04-25T01:47:55;10.45;;;6.25;;
7440;SDS011;29616;51.950;8.572;2023-04-25T01:50:28;20.75;;;6.35;;
7440;SDS011;29616;51.950;8.572;2023-04-25T01:52:59;28.80;;;7.20;;
7440;SDS011;29616;51.950;8.572;2023-04-25T01:55:28;17.40;;;4.13;;
7440;SDS011;29616;51.950;8.572;2023-04-25T01:58:02;19.27;;;5.07;;
7440;SDS011;29616;51.950;8.572;2023-04-25T02:00:52;11.20;;;4.68;;
7440;SDS011;29616;51.950;8.572;2023-04-25T02:03:22;14.48;;;4.32;;
7440;SDS011;29616;51.950;8.572;2023-04-25T02:05:54;24.38;;;7.05;;
7440;SDS011;29616;51.950;8.572;2023-04-25T02:08:25;13.75;;;4.07;;
7440;SDS011;29616;51.950;8.572;2023-04-25T02:10:54;17.23;;;5.45;;
7440;SDS011;29616;51.950;8.572;2023-04-25T02:13:29;12.95;;;5.32;;
7440;SDS011;29616;51.950;8.572;2023-04-25T02:16:18;11.05;;;4.07;;
7440;SDS011;29616;51.950;8.572;2023-04-25T02:18:47;16.15;;;4.35;;
7440;SDS011;29616;51.950;8.572;2023-04-25T02:21:20;11.85;;;5.25;;
7440;SDS011;29616;51.950;8.572;2023-04-25T02:23:49;19.88;;;5.97;;
7440;SDS011;29616;51.950;8.572;2023-04-25T02:26:19;25.33;;;7.07;;
7440;SDS011;29616;51.950;8.572;2023-04-25T02:28:47;34.67;;;12.77;;
7440;SDS011;29616;51.950;8.572;2023-04-25T02:31:15;30.17;;;6.65;;
7440;SDS011;29616;51.950;8.572;2023-04-25T02:33:45;26.25;;;10.13;;
7440;SDS011;29616;51.950;8.572;2023-04-25T02:36:15;22.42;;;8.30;;
7440;SDS011;29616;51.950;8.572;2023-04-25T02:38:43;12.13;;;6.50;;
7440;SDS011;29616;51.950;8.572;2023-04-25T02:41:14;21.60;;;4.32;;
7440;SDS011;29616;51.950;8.572;2023-04-25T02:43:44;14.63;;;5.13;;
7440;SDS011;29616;51.950;8.572;2023-04-25T02:46:17;27.30;;;9.70;;
7440;SDS011;29616;51.950;8.572;2023-04-25T02:49:05;13.50;;;3.63;;
7440;SDS011;29616;51.950;8.572;2023-04-25T02:51:34;15.02;;;5.78;;
7440;SDS011;29616;51.950;8.572;2023-04-25T02:54:04;24.73;;;8.02;;
7440;SDS011;29616;51.950;8.572;2023-04-25T02:56:40;30.85;;;6.55;;
7440;SDS011;29616;51.950;8.572;2023-04-25T02:59:14;24.33;;;4.28;;
7440;SDS011;29616;51.950;8.572;2023-04-25T03:01:44;14.63;;;5.45;;
7440;SDS011;29616;51.950;8.572;2023-04-25T03:04:12;16.55;;;5.32;;
7440;SDS011;29616;51.950;8.572;2023-04-25T03:06:42;13.52;;;3.35;;
7440;SDS011;29616;51.950;8.572;2023-04-25T03:09:10;25.52;;;8.35;;
7440;SDS011;29616;51.950;8.572;2023-04-25T03:11:41;15.82;;;2.92;;
7440;SDS011;29616;51.950;8.572;2023-04-25T03:14:12;12.35;;;5.70;;
7440;SDS011;29616;51.950;8.572;2023-04-25T03:16:40;22.00;;;5.13;;
7440;SDS011;29616;51.950;8.572;2023-04-25T03:19:11;8.30;;;2.58;;
7440;SDS011;29616;51.950;8.572;2023-04-25T03:21:42;10.85;;;2.90;;
7440;SDS011;29616;51.950;8.572;2023-04-25T03:24:12;27.95;;;6.13;;
7440;SDS011;29616;51.950;8.572;2023-04-25T03:26:44;13.25;;;6.22;;
7440;SDS011;29616;51.950;8.572;2023-04-25T03:29:13;21.85;;;7.13;;
7440;SDS011;29616;51.950;8.572;2023-04-25T03:31:43;18.63;;;4.80;;
7440;SDS011;29616;51.950;8.572;2023-04-25T03:34:14;16.55;;;5.15;;
7440;SDS011;29616;51.950;8.572;2023-04-25T03:36:43;16.73;;;4.30;;
7440;SDS011;29616;51.950;8.572;2023-04-25T03:39:13;26.73;;;6.75;;
7440;SDS011;29616;51.950;8.572;2023-04-25T03:41:48;8.55;;;3.70;;
7440;SDS011;29616;51.950;8.572;2023-04-25T03:44:18;20.08;;;3.15;;
7440;SDS011;29616;51.950;8.572;2023-04-25T03:46:48;26.35;;;5.53;;
7440;SDS011;29616;51.950;8.572;2023-04-25T03:49:18;22.45;;;4.82;;
7440;SDS011;29616;51.950;8.572;2023-04-25T03:51:55;18.13;;;6.22;;
7440;SDS011;29616;51.950;8.572;2023-04-25T03:54:25;20.00;;;5.95;;
7440;SDS011;29616;51.950;8.572;2023-04-25T03:57:05;26.55;;;7.72;;
7440;SDS011;29616;51.950;8.572;2023-04-25T03:59:37;11.63;;;2.67;;
7440;SDS011;29616;51.950;8.572;2023-04-25T04:02:08;20.42;;;2.45;;
7440;SDS011;29616;51.950;8.572;2023-04-25T04:04:39;17.27;;;2.53;;
7440;SDS011;29616;51.950;8.572;2023-04-25T04:09:40;14.55;;;3.05;;
7440;SDS011;29616;51.950;8.572;2023-04-25T04:12:18;15.35;;;4.82;;
7440;SDS011;29616;51.950;8.572;2023-04-25T04:14:47;31.88;;;3.20;;
7440;SDS011;29616;51.950;8.572;2023-04-25T04:17:15;16.08;;;2.78;;
7440;SDS011;29616;51.950;8.572;2023-04-25T04:19:44;14.50;;;3.30;;
7440;SDS011;29616;51.950;8.572;2023-04-25T04:22:17;21.45;;;5.25;;
7440;SDS011;29616;51.950;8.572;2023-04-25T04:24:47;12.48;;;3.42;;
7440;SDS011;29616;51.950;8.572;2023-04-25T04:27:23;33.60;;;5.63;;
7440;SDS011;29616;51.950;8.572;2023-04-25T04:30:15;11.27;;;3.20;;
7440;SDS011;29616;51.950;8.572;2023-04-25T04:32:56;19.08;;;4.20;;
7440;SDS011;29616;51.950;8.572;2023-04-25T04:35:26;19.63;;;5.80;;
7440;SDS011;29616;51.950;8.572;2023-04-25T04:37:56;20.08;;;5.57;;
7440;SDS011;29616;51.950;8.572;2023-04-25T04:40:31;13.48;;;3.35;;
7440;SDS011;29616;51.950;8.572;2023-04-25T04:43:23;20.08;;;4.75;;
7440;SDS011;29616;51.950;8.572;2023-04-25T04:46:10;12.02;;;5.32;;
7440;SDS011;29616;51.950;8.572;2023-04-25T04:48:56;20.38;;;4.75;;
7440;SDS011;29616;51.950;8.572;2023-04-25T04:51:43;21.33;;;7.00;;
7440;SDS011;29616;51.950;8.572;2023-04-25T04:54:29;9.52;;;4.82;;
7440;SDS011;29616;51.950;8.572;2023-04-25T04:57:34;16.13;;;4.35;;
7440;SDS011;29616;51.950;8.572;2023-04-25T05:00:22;17.00;;;7.47;;
7440;SDS011;29616;51.950;8.572;2023-04-25T05:03:21;24.05;;;7.95;;
7440;SDS011;29616;51.950;8.572;2023-04-25T05:06:05;13.98;;;5.57;;
7440;SDS011;29616;51.950;8.572;2023-04-25T05:09:07;7.57;;;2.22;;
7440;SDS011;29616;51.950;8.572;2023-04-25T05:11:47;16.48;;;4.28;;
7440;SDS011;29616;51.950;8.572;2023-04-25T05:14:46;15.32;;;6.40;;
7440;SDS011;29616;51.950;8.572;2023-04-25T05:17:30;25.70;;;6.18;;
7440;SDS011;29616;51.950;8.572;2023-04-25T05:20:30;17.05;;;7.00;;
7440;SDS011;29616;51.950;8.572;2023-04-25T05:23:20;18.50;;;4.18;;
7440;SDS011;29616;51.950;8.572;2023-04-25T05:26:10;23.95;;;7.50;;
7440;SDS011;29616;51.950;8.572;2023-04-25T05:28:52;13.60;;;4.75;;
7440;SDS011;29616;51.950;8.572;2023-04-25T05:31:39;15.13;;;3.10;;
7440;SDS011;29616;51.950;8.572;2023-04-25T05:34:14;19.02;;;3.83;;
7440;SDS011;29616;51.950;8.572;2023-04-25T05:37:00;27.92;;;4.18;;
7440;SDS011;29616;51.950;8.572;2023-04-25T05:39:32;17.45;;;5.60;;
7440;SDS011;29616;51.950;8.572;2023-04-25T05:42:23;11.50;;;4.32;;
7440;SDS011;29616;51.950;8.572;2023-04-25T05:45:17;9.35;;;5.05;;
7440;SDS011;29616;51.950;8.572;2023-04-25T05:48:10;11.63;;;7.00;;
7440;SDS011;29616;51.950;8.572;2023-04-25T05:50:51;17.30;;;7.13;;
7440;SDS011;29616;51.950;8.572;2023-04-25T05:53:38;19.30;;;6.43;;
7440;SDS011;29616;51.950;8.572;2023-04-25T05:56:08;17.90;;;7.35;;
7440;SDS011;29616;51.950;8.572;2023-04-25T05:58:37;10.52;;;4.18;;
7440;SDS011;29616;51.950;8.572;2023-04-25T06:01:09;12.40;;;5.50;;
7440;SDS011;29616;51.950;8.572;2023-04-25T06:03:38;18.60;;;6.93;;
7440;SDS011;29616;51.950;8.572;2023-04-25T06:06:13;16.75;;;5.00;;
7440;SDS011;29616;51.950;8.572;2023-04-25T06:08:41;11.82;;;4.70;;
7440;SDS011;29616;51.950;8.572;2023-04-25T06:11:10;17.85;;;5.07;;
7440;SDS011;29616;51.950;8.572;2023-04-25T06:13:39;19.08;;;6.85;;
7440;SDS011;29616;51.950;8.572;2023-04-25T06:16:07;20.45;;;4.25;;
7440;SDS011;29616;51.950;8.572;2023-04-25T06:18:37;12.82;;;4.63;;
7440;SDS011;29616;51.950;8.572;2023-04-25T06:23:37;12.30;;;3.47;;
7440;SDS011;29616;51.950;8.572;2023-04-25T06:26:11;10.85;;;5.35;;
7440;SDS011;29616;51.950;8.572;2023-04-25T06:28:42;11.35;;;6.20;;
7440;SDS011;29616;51.950;8.572;2023-04-25T06:31:12;9.95;;;4.32;;
7440;SDS011;29616;51.950;8.572;2023-04-25T06:33:44;11.90;;;4.45;;
7440;SDS011;29616;51.950;8.572;2023-04-25T06:36:15;7.18;;;2.53;;
7440;SDS011;29616;51.950;8.572;2023-04-25T06:38:48;13.70;;;4.35;;
7440;SDS011;29616;51.950;8.572;2023-04-25T06:41:19;12.95;;;3.38;;
7440;SDS011;29616;51.950;8.572;2023-04-25T06:43:47;14.23;;;5.07;;
7440;SDS011;29616;51.950;8.572;2023-04-25T06:46:38;13.07;;;4.50;;
7440;SDS011;29616;51.950;8.572;2023-04-25T06:49:07;15.27;;;3.22;;
7440;SDS011;29616;51.950;8.572;2023-04-25T06:51:38;9.88;;;2.97;;
7440;SDS011;29616;51.950;8.572;2023-04-25T06:54:09;14.10;;;3.05;;
7440;SDS011;29616;51.950;8.572;2023-04-25T06:56:47;16.75;;;7.35;;
7440;SDS011;29616;51.950;8.572;2023-04-25T06:59:17;11.07;;;5.20;;
7440;SDS011;29616;51.950;8.572;2023-04-25T07:01:49;13.27;;;3.13;;
7440;SDS011;29616;51.950;8.572;2023-04-25T07:04:23;10.50;;;3.83;;
7440;SDS011;29616;51.950;8.572;2023-04-25T07:06:57;7.68;;;4.03;;
7440;SDS011;29616;51.950;8.572;2023-04-25T07:09:39;17.98;;;5.82;;
7440;SDS011;29616;51.950;8.572;2023-04-25T07:12:10;12.73;;;3.05;;
7440;SDS011;29616;51.950;8.572;2023-04-25T07:14:39;18.27;;;4.45;;
7440;SDS011;29616;51.950;8.572;2023-04-25T07:17:09;7.75;;;2.47;;
7440;SDS011;29616;51.950;8.572;2023-04-25T07:19:38;10.77;;;5.80;;
7440;SDS011;29616;51.950;8.572;2023-04-25T07:22:09;11.32;;;4.32;;
7440;SDS011;29616;51.950;8.572;2023-04-25T07:24:42;9.25;;;3.00;;
7440;SDS011;29616;51.950;8.572;2023-04-25T07:27:17;10.50;;;2.17;;
7440;SDS011;29616;51.950;8.572;2023-04-25T07:29:55;8.18;;;3.05;;
7440;SDS011;29616;51.950;8.572;2023-04-25T07:32:23;10.02;;;3.45;;
7440;SDS011;29616;51.950;8.572;2023-04-25T07:34:53;8.55;;;3.35;;
7440;SDS011;29616;51.950;8.572;2023-04-25T07:37:21;6.38;;;3.78;;
7440;SDS011;29616;51.950;8.572;2023-04-25T07:40:20;14.52;;;3.50;;
7440;SDS011;29616;51.950;8.572;2023-04-25T07:43:04;9.88;;;3.63;;
7440;SDS011;29616;51.950;8.572;2023-04-25T07:45:49;10.38;;;3.35;;
7440;SDS011;29616;51.950;8.572;2023-04-25T07:48:19;4.93;;;1.75;;
7440;SDS011;29616;51.950;8.572;2023-04-25T07:50:51;14.57;;;5.47;;
7440;SDS011;29616;51.950;8.572;2023-04-25T07:53:20;9.93;;;3.38;;
7440;SDS011;29616;51.950;8.572;2023-04-25T07:55:54;9.65;;;2.10;;
7440;SDS011;29616;51.950;8.572;2023-04-25T07:58:23;11.63;;;2.63;;
7440;SDS011;29616;51.950;8.572;2023-04-25T08:00:56;11.93;;;4.22;;
7440;SDS011;29616;51.950;8.572;2023-04-25T08:03:40;10.30;;;4.50;;
7440;SDS011;29616;51.950;8.572;2023-04-25T08:06:18;10.77;;;5.13;;
7440;SDS011;29616;51.950;8.572;2023-04-25T08:08:55;12.40;;;4.38;;
7440;SDS011;29616;51.950;8.572;2023-04-25T08:11:33;13.10;;;1.75;;
7440;SDS011;29616;51.950;8.572;2023-04-25T08:14:05;7.20;;;1.85;;
7440;SDS011;29616;51.950;8.572;2023-04-25T08:16:36;9.77;;;2.17;;
7440;SDS011;29616;51.950;8.572;2023-04-25T08:19:05;10.73;;;2.17;;
7440;SDS011;29616;51.950;8.572;2023-04-25T08:21:35;12.88;;;2.33;;
7440;SDS011;29616;51.950;8.572;2023-04-25T08:24:08;10.65;;;3.17;;
7440;SDS011;29616;51.950;8.572;2023-04-25T08:26:41;7.97;;;1.67;;
7440;SDS011;29616;51.950;8.572;2023-04-25T08:29:14;5.57;;;2.80;;
7440;SDS011;29616;51.950;8.572;2023-04-25T08:31:43;4.05;;;1.00;;
7440;SDS011;29616;51.950;8.572;2023-04-25T08:34:13;6.00;;;2.10;;
7440;SDS011;29616;51.950;8.572;2023-04-25T08:36:44;6.82;;;1.33;;
7440;SDS011;29616;51.950;8.572;2023-04-25T08:42:24;7.47;;;1.85;;
7440;SDS011;29616;51.950;8.572;2023-04-25T08:44:57;3.72;;;1.75;;
7440;SDS011;29616;51.950;8.572;2023-04-25T08:47:37;10.43;;;3.85;;
7440;SDS011;29616;51.950;8.572;2023-04-25T08:50:09;8.77;;;1.58;;
7440;SDS011;29616;51.950;8.572;2023-04-25T08:52:43;3.92;;;3.03;;
7440;SDS011;29616;51.950;8.572;2023-04-25T08:55:13;6.25;;;1.65;;
7440;SDS011;29616;51.950;8.572;2023-04-25T08:57:48;13.10;;;3.17;;
7440;SDS011;29616;51.950;8.572;2023-04-25T09:00:19;7.93;;;3.83;;
7440;SDS011;29616;51.950;8.572;2023-04-25T09:02:49;8.82;;;1.45;;
7440;SDS011;29616;51.950;8.572;2023-04-25T09:05:18;11.57;;;4.40;;
7440;SDS011;29616;51.950;8.572;2023-04-25T09:07:51;7.68;;;2.80;;
7440;SDS011;29616;51.950;8.572;2023-04-25T09:10:19;7.22;;;2.55;;
7440;SDS011;29616;51.950;8.572;2023-04-25T09:13:05;9.20;;;2.38;;
7440;SDS011;29616;51.950;8.572;2023-04-25T09:16:03;3.80;;;0.70;;
7440;SDS011;29616;51.950;8.572;2023-04-25T09:18:48;4.20;;;1.02;;
7440;SDS011;29616;51.950;8.572;2023-04-25T09:21:18;6.35;;;2.95;;
7440;SDS011;29616;51.950;8.572;2023-04-25T09:23:52;4.53;;;1.10;;
7440;SDS011;29616;51.950;8.572;2023-04-25T09:26:23;6.97;;;1.67;;
7440;SDS011;29616;51.950;8.572;2023-04-25T09:29:05;10.02;;;1.92;;
7440;SDS011;29616;51.950;8.572;2023-04-25T09:31:40;5.65;;;2.10;;
7440;SDS011;29616;51.950;8.572;2023-04-25T09:34:10;5.20;;;0.82;;
7440;SDS011;29616;51.950;8.572;2023-04-25T09:36:50;4.78;;;1.73;;
7440;SDS011;29616;51.950;8.572;2023-04-25T09:39:37;4.18;;;1.38;;
7440;SDS011;29616;51.950;8.572;2023-04-25T09:42:12;6.97;;;2.53;;
7440;SDS011;29616;51.950;8.572;2023-04-25T09:44:44;5.65;;;3.13;;
7440;SDS011;29616;51.950;8.572;2023-04-25T09:47:15;5.10;;;2.60;;
7440;SDS011;29616;51.950;8.572;2023-04-25T09:49:44;5.63;;;2.05;;
7440;SDS011;29616;51.950;8.572;2023-04-25T09:52:17;4.10;;;2.83;;
7440;SDS011;29616;51.950;8.572;2023-04-25T09:55:08;4.68;;;0.98;;
7440;SDS011;29616;51.950;8.572;2023-04-25T09:57:38;4.65;;;1.80;;
7440;SDS011;29616;51.950;8.572;2023-04-25T10:00:11;6.10;;;2.33;;
7440;SDS011;29616;51.950;8.572;2023-04-25T10:02:41;3.65;;;2.10;;
7440;SDS011;29616;51.950;8.572;2023-04-25T10:05:34;6.40;;;1.02;;
7440;SDS011;29616;51.950;8.572;2023-04-25T10:08:07;3.47;;;0.75;;
7440;SDS011;29616;51.950;8.572;2023-04-25T10:13:08;2.55;;;0.52;;
7440;SDS011;29616;51.950;8.572;2023-04-25T10:15:43;4.35;;;1.90;;
7440;SDS011;29616;51.950;8.572;2023-04-25T10:18:14;4.22;;;2.38;;
7440;SDS011;29616;51.950;8.572;2023-04-25T10:20:47;5.88;;;1.30;;
7440;SDS011;29616;51.950;8.572;2023-04-25T10:23:20;4.28;;;2.55;;
7440;SDS011;29616;51.950;8.572;2023-04-25T10:25:52;5.80;;;0.90;;
7440;SDS011;29616;51.950;8.572;2023-04-25T10:28:22;5.35;;;0.85;;
7440;SDS011;29616;51.950;8.572;2023-04-25T10:30:59;6.65;;;1.98;;
7440;SDS011;29616;51.950;8.572;2023-04-25T10:33:35;5.85;;;2.40;;
7440;SDS011;29616;51.950;8.572;2023-04-25T10:36:08;7.65;;;3.90;;
7440;SDS011;29616;51.950;8.572;2023-04-25T10:38:42;7.97;;;1.88;;
7440;SDS011;29616;51.950;8.572;2023-04-25T10:41:17;3.42;;;1.98;;
7440;SDS011;29616;51.950;8.572;2023-04-25T10:43:47;3.13;;;0.40;;
7440;SDS011;29616;51.950;8.572;2023-04-25T10:46:21;6.55;;;0.95;;
7440;SDS011;29616;51.950;8.572;2023-04-25T10:48:54;6.97;;;0.82;;
7440;SDS011;29616;51.950;8.572;2023-04-25T10:51:25;6.55;;;2.88;;
7440;SDS011;29616;51.950;8.572;2023-04-25T10:54:09;5.55;;;0.95;;
7440;SDS011;29616;51.950;8.572;2023-04-25T10:56:38;4.65;;;1.33;;
7440;SDS011;29616;51.950;8.572;2023-04-25T10:59:12;6.15;;;2.92;;
7440;SDS011;29616;51.950;8.572;2023-04-25T11:01:44;4.38;;;2.60;;
7440;SDS011;29616;51.950;8.572;2023-04-25T11:04:20;12.20;;;3.65;;
7440;SDS011;29616;51.950;8.572;2023-04-25T11:06:55;3.47;;;1.00;;
7440;SDS011;29616;51.950;8.572;2023-04-25T11:09:38;8.30;;;2.20;;
7440;SDS011;29616;51.950;8.572;2023-04-25T11:12:09;8.23;;;3.00;;
7440;SDS011;29616;51.950;8.572;2023-04-25T11:14:42;4.93;;;2.85;;
7440;SDS011;29616;51.950;8.572;2023-04-25T11:17:13;6.57;;;2.72;;
7440;SDS011;29616;51.950;8.572;2023-04-25T11:19:41;3.80;;;0.70;;
7440;SDS011;29616;51.950;8.572;2023-04-25T11:22:11;5.45;;;1.45;;
7440;SDS011;29616;51.950;8.572;2023-04-25T11:24:41;7.00;;;3.15;;
7440;SDS011;29616;51.950;8.572;2023-04-25T11:27:11;2.85;;;0.60;;
7440;SDS011;29616;51.950;8.572;2023-04-25T11:29:40;2.90;;;1.83;;
7440;SDS011;29616;51.950;8.572;2023-04-25T11:32:13;3.90;;;1.20;;
7440;SDS011;29616;51.950;8.572;2023-04-25T11:34:45;6.22;;;2.55;;
7440;SDS011;29616;51.950;8.572;2023-04-25T11:37:15;4.75;;;3.10;;
7440;SDS011;29616;51.950;8.572;2023-04-25T11:39:45;7.60;;;2.60;;
7440;SDS011;29616;51.950;8.572;2023-04-25T11:42:13;5.85;;;1.85;;
7440;SDS011;29616;51.950;8.572;2023-04-25T11:44:43;6.00;;;2.55;;
7440;SDS011;29616;51.950;8.572;2023-04-25T11:47:11;4.18;;;0.57;;
7440;SDS011;29616;51.950;8.572;2023-04-25T11:49:42;6.68;;;1.95;;
7440;SDS011;29616;51.950;8.572;2023-04-25T11:52:12;3.03;;;0.80;;
7440;SDS011;29616;51.950;8.572;2023-04-25T11:54:40;4.15;;;1.83;;
7440;SDS011;29616;51.950;8.572;2023-04-25T11:57:08;2.75;;;0.40;;
7440;SDS011;29616;51.950;8.572;2023-04-25T11:59:36;5.68;;;1.95;;
7440;SDS011;29616;51.950;8.572;2023-04-25T12:02:05;3.78;;;2.50;;
7440;SDS011;29616;51.950;8.572;2023-04-25T12:04:35;3.45;;;0.35;;
7440;SDS011;29616;51.950;8.572;2023-04-25T12:07:05;3.45;;;0.40;;
7440;SDS011;29616;51.950;8.572;2023-04-25T12:09:38;4.72;;;1.15;;
7440;SDS011;29616;51.950;8.572;2023-04-25T12:12:09;4.18;;;2.20;;
7440;SDS011;29616;51.950;8.572;2023-04-25T12:14:39;7.38;;;0.93;;
7440;SDS011;29616;51.950;8.572;2023-04-25T12:17:07;7.07;;;0.63;;
7440;SDS011;29616;51.950;8.572;2023-04-25T12:19:38;6.55;;;1.70;;
7440;SDS011;29616;51.950;8.572;2023-04-25T12:22:18;5.40;;;0.85;;
7440;SDS011;29616;51.950;8.572;2023-04-25T12:24:48;3.47;;;2.20;;
7440;SDS011;29616;51.950;8.572;2023-04-25T12:27:19;3.67;;;2.35;;
7440;SDS011;29616;51.950;8.572;2023-04-25T12:29:52;5.72;;;0.88;;
7440;SDS011;29616;51.950;8.572;2023-04-25T12:32:22;2.97;;;0.70;;
7440;SDS011;29616;51.950;8.572;2023-04-25T12:34:54;4.63;;;0.98;;
7440;SDS011;29616;51.950;8.572;2023-04-25T12:37:24;4.32;;;2.30;;
7440;SDS011;29616;51.950;8.572;2023-04-25T12:39:54;3.45;;;2.35;;
7440;SDS011;29616;51.950;8.572;2023-04-25T12:42:22;4.95;;;2.35;;
7440;SDS011;29616;51.950;8.572;2023-04-25T12:44:52;1.23;;;0.28;;
7440;SDS011;29616;51.950;8.572;2023-04-25T12:47:21;3.63;;;0.63;;
7440;SDS011;29616;51.950;8.572;2023-04-25T12:49:51;6.32;;;2.53;;
7440;SDS011;29616;51.950;8.572;2023-04-25T12:52:21;3.20;;;0.35;;
7440;SDS011;29616;51.950;8.572;2023-04-25T12:54:51;3.65;;;2.60;;
7440;SDS011;29616;51.950;8.572;2023-04-25T12:57:22;4.55;;;1.77;;
7440;SDS011;29616;51.950;8.572;2023-04-25T12:59:51;4.95;;;0.93;;
7440;SDS011;29616;51.950;8.572;2023-04-25T13:02:24;5.32;;;2.42;;
7440;SDS011;29616;51.950;8.572;2023-04-25T13:04:54;6.57;;;0.77;;
7440;SDS011;29616;51.950;8.572;2023-04-25T13:07:26;4.22;;;2.33;;
7440;SDS011;29616;51.950;8.572;2023-04-25T13:09:54;7.70;;;0.52;;
7440;SDS011;29616;51.950;8.572;2023-04-25T13:14:52;1.75;;;0.77;;
7440;SDS011;29616;51.950;8.572;2023-04-25T13:17:23;1.42;;;0.52;;
7440;SDS011;29616;51.950;8.572;2023-04-25T13:19:55;3.15;;;2.53;;
7440;SDS011;29616;51.950;8.572;2023-04-25T13:22:26;3.70;;;1.67;;
7440;SDS011;29616;51.950;8.572;2023-04-25T13:24:55;3.30;;;1.55;;
7440;SDS011;29616;51.950;8.572;2023-04-25T13:27:25;2.78;;;0.38;;
7440;SDS011;29616;51.950;8.572;2023-04-25T13:29:53;4.13;;;2.70;;
7440;SDS011;29616;51.950;8.572;2023-04-25T13:32:23;4.32;;;1.63;;
7440;SDS011;29616;51.950;8.572;2023-04-25T13:34:52;2.28;;;0.70;;
7440;SDS011;29616;51.950;8.572;2023-04-25T13:37:23;3.70;;;1.95;;
7440;SDS011;29616;51.950;8.572;2023-04-25T13:39:54;3.25;;;0.65;;
7440;SDS011;29616;51.950;8.572;2023-04-25T13:42:23;3.67;;;2.03;;
7440;SDS011;29616;51.950;8.572;2023-04-25T13:44:53;1.85;;;0.75;;
7440;SDS011;29616;51.950;8.572;2023-04-25T13:47:22;3.35;;;1.25;;
7440;SDS011;29616;51.950;8.572;2023-04-25T13:49:52;3.97;;;1.48;;
7440;SDS011;29616;51.950;8.572;2023-04-25T13:52:22;2.53;;;0.57;;
7440;SDS011;29616;51.950;8.572;2023-04-25T13:54:52;2.20;;;1.77;;
7440;SDS011;29616;51.950;8.572;2023-04-25T13:57:20;4.03;;;2.42;;
7440;SDS011;29616;51.950;8.572;2023-04-25T13:59:50;2.65;;;2.08;;
7440;SDS011;29616;51.950;8.572;2023-04-25T14:02:21;2.08;;;0.63;;
7440;SDS011;29616;51.950;8.572;2023-04-25T14:04:51;6.20;;;1.08;;
7440;SDS011;29616;51.950;8.572;2023-04-25T14:07:21;4.40;;;2.53;;
7440;SDS011;29616;51.950;8.572;2023-04-25T14:12:20;2.20;;;1.15;;
7440;SDS011;29616;51.950;8.572;2023-04-25T14:14:50;2.75;;;0.43;;
7440;SDS011;29616;51.950;8.572;2023-04-25T14:17:21;2.45;;;1.85;;
7440;SDS011;29616;51.950;8.572;2023-04-25T14:19:52;3.35;;;1.95;;
7440;SDS011;29616;51.950;8.572;2023-04-25T14:22:20;3.22;;;2.13;;
7440;SDS011;29616;51.950;8.572;2023-04-25T14:24:51;3.22;;;0.47;;
7440;SDS011;29616;51.950;8.572;2023-04-25T14:27:21;2.50;;;1.08;;
7440;SDS011;29616;51.950;8.572;2023-04-25T14:29:51;7.78;;;2.45;;
7440;SDS011;29616;51.950;8.572;2023-04-25T14:32:21;3.55;;;1.25;;
7440;SDS011;29616;51.950;8.572;2023-04-25T14:34:51;1.88;;;0.60;;
7440;SDS011;29616;51.950;8.572;2023-04-25T14:37:19;2.47;;;0.52;;
7440;SDS011;29616;51.950;8.572;2023-04-25T14:39:48;4.45;;;2.45;;
7440;SDS011;29616;51.950;8.572;2023-04-25T14:42:17;5.38;;;0.90;;
7440;SDS011;29616;51.950;8.572;2023-04-25T14:44:48;2.33;;;0.75;;
7440;SDS011;29616;51.950;8.572;2023-04-25T14:47:18;3.20;;;1.77;;
7440;SDS011;29616;51.950;8.572;2023-04-25T14:49:48;2.53;;;1.67;;
7440;SDS011;29616;51.950;8.572;2023-04-25T14:52:21;3.50;;;2.78;;
7440;SDS011;29616;51.950;8.572;2023-04-25T14:54:51;4.07;;;3.10;;
7440;SDS011;29616;51.950;8.572;2023-04-25T14:57:22;2.42;;;1.83;;
7440;SDS011;29616;51.950;8.572;2023-04-25T14:59:50;4.75;;;2.72;;
7440;SDS011;29616;51.950;8.572;2023-04-25T15:02:20;2.95;;;2.10;;
7440;SDS011;29616;51.950;8.572;2023-04-25T15:04:48;4.05;;;2.05;;
7440;SDS011;29616;51.950;8.572;2023-04-25T15:07:18;1.42;;;0.63;;
7440;SDS011;29616;51.950;8.572;2023-04-25T15:09:47;2.55;;;0.57;;
7440;SDS011;29616;51.950;8.572;2023-04-25T15:12:16;4.85;;;2.60;;
7440;SDS011;29616;51.950;8.572;2023-04-25T15:14:47;4.95;;;0.75;;
7440;SDS011;29616;51.950;8.572;2023-04-25T15:17:16;6.43;;;0.90;;
7440;SDS011;29616;51.950;8.572;2023-04-25T15:19:45;3.85;;;1.67;;
7440;SDS011;29616;51.950;8.572;2023-04-25T15:22:14;4.25;;;1.35;;
7440;SDS011;29616;51.950;8.572;2023-04-25T15:24:43;2.40;;;1.73;;
7440;SDS011;29616;51.950;8.572;2023-04-25T15:27:12;3.42;;;2.67;;
7440;SDS011;29616;51.950;8.572;2023-04-25T15:29:42;4.30;;;2.60;;
7440;SDS011;29616;51.950;8.572;2023-04-25T15:32:13;3.75;;;3.13;;
7440;SDS011;29616;51.950;8.572;2023-04-25T15:34:44;1.63;;;0.70;;
7440;SDS011;29616;51.950;8.572;2023-04-25T15:37:12;2.78;;;1.55;;
7440;SDS011;29616;51.950;8.572;2023-04-25T15:39:43;4.72;;;0.75;;
7440;SDS011;29616;51.950;8.572;2023-04-25T15:42:12;5.60;;;2.42;;
7440;SDS011;29616;51.950;8.572;2023-04-25T15:44:41;2.95;;;1.27;;